createdAt,value
2023-11-30T00:01:14.113Z,88.74
2023-11-30T00:03:41.047Z,88.74
2023-11-30T00:06:08.488Z,88.65
2023-11-30T00:08:38.223Z,88.41
2023-11-30T00:13:37.157Z,88.75
2023-11-30T00:16:04.052Z,88.83
2023-11-30T00:18:30.722Z,88.81
2023-11-30T00:20:57.607Z,88.23
2023-11-30T00:23:24.222Z,88.47
2023-11-30T00:25:51.084Z,88.39
2023-11-30T00:28:17.933Z,87.74
2023-11-30T00:30:44.777Z,88.35
2023-11-30T00:33:11.701Z,88.42
2023-11-30T00:35:38.384Z,88.26
2023-11-30T00:38:04.980Z,88.35
2023-11-30T00:40:31.797Z,88.12
2023-11-30T00:42:58.515Z,88.72
2023-11-30T00:45:25.518Z,88.51
2023-11-30T00:47:52.364Z,88.42
2023-11-30T00:50:19.067Z,88.73
2023-11-30T00:52:45.894Z,88.63
2023-11-30T00:55:12.481Z,88.94
2023-11-30T00:57:39.694Z,88.79
2023-11-30T01:00:10.033Z,88.42
2023-11-30T01:02:37.125Z,88.79
2023-11-30T01:05:03.822Z,88.51
2023-11-30T01:07:30.422Z,88.47
2023-11-30T01:09:57.226Z,88.68
2023-11-30T01:12:23.846Z,88.66
2023-11-30T01:14:52.953Z,88.74
2023-11-30T01:17:19.669Z,88.79
2023-11-30T01:19:46.317Z,89.19
2023-11-30T01:22:13.632Z,89.18
2023-11-30T01:24:40.459Z,88.89
2023-11-30T01:27:09.676Z,89.00
2023-11-30T01:29:36.307Z,88.60
2023-11-30T01:32:03.388Z,88.47
2023-11-30T01:34:30.226Z,88.39
2023-11-30T01:36:56.874Z,88.37
2023-11-30T01:39:23.565Z,88.69
2023-11-30T01:41:50.498Z,88.56
2023-11-30T01:44:17.119Z,88.40
2023-11-30T01:46:43.892Z,88.48
2023-11-30T01:49:10.709Z,88.48
2023-11-30T01:51:37.879Z,88.75
2023-11-30T01:54:07.406Z,88.59
2023-11-30T01:56:35.947Z,88.42
2023-11-30T01:59:04.282Z,88.29
2023-11-30T02:01:31.837Z,88.22
2023-11-30T02:04:03.355Z,88.44
2023-11-30T02:06:30.016Z,88.44
2023-11-30T02:08:56.715Z,88.42
2023-11-30T02:11:23.548Z,88.49
2023-11-30T02:13:50.900Z,88.29
2023-11-30T02:16:17.740Z,87.88
2023-11-30T02:18:44.385Z,88.44
2023-11-30T02:21:11.218Z,88.44
2023-11-30T02:23:38.099Z,88.27
2023-11-30T02:26:04.903Z,88.61
2023-11-30T02:28:31.768Z,88.15
2023-11-30T02:30:58.367Z,88.01
2023-11-30T02:33:25.084Z,88.40
2023-11-30T02:35:51.993Z,88.31
2023-11-30T02:38:18.627Z,88.46
2023-11-30T02:40:46.314Z,88.40
2023-11-30T02:43:12.944Z,88.46
2023-11-30T02:45:39.744Z,88.60
2023-11-30T02:48:06.712Z,88.47
2023-11-30T02:50:33.633Z,88.31
2023-11-30T02:53:01.205Z,88.42
2023-11-30T02:55:27.863Z,88.58
2023-11-30T02:57:54.510Z,88.13
2023-11-30T03:00:21.384Z,87.88
2023-11-30T03:02:48.289Z,88.24
2023-11-30T03:05:14.958Z,88.48
2023-11-30T03:07:41.579Z,87.84
2023-11-30T03:10:08.844Z,88.04
2023-11-30T03:12:35.818Z,88.43
2023-11-30T03:15:02.651Z,88.32
2023-11-30T03:17:29.427Z,88.47
2023-11-30T03:19:56.399Z,88.33
2023-11-30T03:22:23.018Z,88.30
2023-11-30T03:24:49.920Z,88.29
2023-11-30T03:27:16.540Z,88.17
2023-11-30T03:29:43.311Z,87.91
2023-11-30T03:32:10.239Z,88.20
2023-11-30T03:34:36.927Z,88.25
2023-11-30T03:37:04.140Z,88.38
2023-11-30T03:39:30.812Z,88.37
2023-11-30T03:41:57.479Z,88.17
2023-11-30T03:44:24.338Z,87.74
2023-11-30T03:46:50.961Z,88.13
2023-11-30T03:49:17.882Z,88.37
2023-11-30T03:51:44.477Z,88.62
2023-11-30T03:54:11.127Z,88.47
2023-11-30T03:56:38.054Z,88.51
2023-11-30T03:59:04.961Z,88.31
2023-11-30T04:01:31.929Z,88.12
2023-11-30T04:03:58.651Z,88.48
2023-11-30T04:06:25.292Z,87.88
2023-11-30T04:08:52.621Z,88.52
2023-11-30T04:11:19.599Z,88.52
2023-11-30T04:13:48.718Z,88.44
2023-11-30T04:16:16.414Z,88.81
2023-11-30T04:18:43.509Z,88.73
2023-11-30T04:21:10.932Z,88.43
2023-11-30T04:23:37.778Z,88.92
2023-11-30T04:26:04.524Z,88.94
2023-11-30T04:28:31.599Z,88.83
2023-11-30T04:30:58.406Z,88.72
2023-11-30T04:33:25.472Z,88.72
2023-11-30T04:35:52.199Z,88.65
2023-11-30T04:38:19.913Z,88.80
2023-11-30T04:40:46.782Z,88.82
2023-11-30T04:43:13.770Z,88.68
2023-11-30T04:45:40.455Z,88.97
2023-11-30T04:48:07.208Z,88.72
2023-11-30T04:50:33.910Z,88.53
2023-11-30T04:53:00.840Z,89.19
2023-11-30T04:55:27.927Z,89.57
2023-11-30T04:57:55.007Z,89.41
2023-11-30T05:00:21.719Z,89.26
2023-11-30T05:02:57.170Z,89.24
2023-11-30T05:05:24.292Z,89.51
2023-11-30T05:07:50.970Z,89.57
2023-11-30T05:10:17.927Z,89.36
2023-11-30T05:12:44.789Z,89.41
2023-11-30T05:15:11.748Z,89.04
2023-11-30T05:17:38.484Z,89.54
2023-11-30T05:20:05.891Z,89.92
2023-11-30T05:22:32.656Z,89.88
2023-11-30T05:24:59.316Z,89.43
2023-11-30T05:27:26.043Z,89.84
2023-11-30T05:29:52.707Z,89.51
2023-11-30T05:32:19.478Z,89.52
2023-11-30T05:34:46.494Z,89.58
2023-11-30T05:37:13.096Z,89.84
2023-11-30T05:39:40.120Z,89.38
2023-11-30T05:42:06.814Z,89.43
2023-11-30T05:44:33.529Z,89.34
2023-11-30T05:47:00.354Z,89.26
2023-11-30T05:49:27.382Z,89.64
2023-11-30T05:51:54.315Z,89.26
2023-11-30T05:54:21.034Z,89.46
2023-11-30T05:56:47.762Z,89.17
2023-11-30T05:59:15.041Z,89.51
2023-11-30T06:01:41.931Z,89.36
2023-11-30T06:04:08.938Z,89.15
2023-11-30T06:06:35.783Z,89.20
2023-11-30T06:09:02.931Z,89.43
2023-11-30T06:11:29.854Z,89.09
2023-11-30T06:13:57.047Z,89.22
2023-11-30T06:16:24.359Z,89.24
2023-11-30T06:18:51.005Z,89.44
2023-11-30T06:21:18.070Z,90.63
2023-11-30T06:23:45.229Z,90.36
2023-11-30T06:26:12.059Z,90.51
2023-11-30T06:28:38.770Z,90.46
2023-11-30T06:31:05.686Z,90.84
2023-11-30T06:33:32.726Z,90.82
2023-11-30T06:35:59.445Z,90.95
2023-11-30T06:38:26.076Z,90.59
2023-11-30T06:40:52.984Z,90.98
2023-11-30T06:43:19.577Z,90.82
2023-11-30T06:45:46.466Z,90.82
2023-11-30T06:48:13.182Z,90.93
2023-11-30T06:50:40.116Z,91.04
2023-11-30T06:53:06.704Z,91.41
2023-11-30T06:55:33.399Z,91.53
2023-11-30T06:58:00.541Z,91.55
2023-11-30T07:00:28.282Z,91.24
2023-11-30T07:02:58.327Z,91.07
2023-11-30T07:05:25.633Z,91.31
2023-11-30T07:07:52.332Z,90.99
2023-11-30T07:10:18.951Z,91.10
2023-11-30T07:12:46.984Z,91.23
2023-11-30T07:15:13.992Z,90.96
2023-11-30T07:17:40.922Z,90.80
2023-11-30T07:20:08.743Z,90.75
2023-11-30T07:22:36.279Z,90.93
2023-11-30T07:25:03.040Z,91.08
2023-11-30T07:27:30.023Z,91.00
2023-11-30T07:29:56.852Z,91.04
2023-11-30T07:32:23.618Z,91.09
2023-11-30T07:34:50.500Z,91.35
2023-11-30T07:37:19.447Z,91.26
2023-11-30T07:39:46.462Z,91.06
2023-11-30T07:42:26.036Z,90.72
2023-11-30T07:44:59.710Z,90.83
2023-11-30T07:47:26.384Z,90.59
2023-11-30T07:49:52.983Z,90.85
2023-11-30T07:52:19.586Z,90.41
2023-11-30T07:54:46.499Z,90.41
2023-11-30T07:57:14.700Z,90.51
2023-11-30T07:59:41.285Z,90.25
2023-11-30T08:02:09.359Z,90.25
2023-11-30T08:04:39.853Z,90.37
2023-11-30T08:07:06.628Z,89.88
2023-11-30T08:09:33.606Z,89.60
2023-11-30T08:12:00.272Z,89.67
2023-11-30T08:14:26.892Z,89.11
2023-11-30T08:16:53.923Z,89.30
2023-11-30T08:19:20.573Z,89.00
2023-11-30T08:21:48.806Z,89.04
2023-11-30T08:24:15.688Z,89.01
2023-11-30T08:26:43.304Z,88.90
2023-11-30T08:31:38.635Z,88.51
2023-11-30T08:34:05.827Z,87.92
2023-11-30T08:36:32.473Z,87.93
2023-11-30T08:38:59.166Z,87.76
2023-11-30T08:41:26.130Z,87.87
2023-11-30T08:43:52.729Z,87.90
2023-11-30T08:46:19.790Z,87.74
2023-11-30T08:48:46.650Z,87.40
2023-11-30T08:51:13.440Z,87.40
2023-11-30T08:53:40.335Z,87.49
2023-11-30T08:56:07.565Z,87.20
2023-11-30T08:58:34.753Z,86.76
2023-11-30T09:01:01.341Z,86.69
2023-11-30T09:03:28.152Z,86.26
2023-11-30T09:05:54.938Z,85.37
2023-11-30T09:08:21.669Z,85.97
2023-11-30T09:10:48.873Z,85.00
2023-11-30T09:13:15.468Z,85.28
2023-11-30T09:15:42.388Z,85.74
2023-11-30T09:18:11.789Z,85.99
2023-11-30T09:20:38.842Z,85.31
2023-11-30T09:23:07.658Z,85.75
2023-11-30T09:25:34.579Z,85.48
2023-11-30T09:28:01.273Z,85.55
2023-11-30T09:30:28.025Z,86.19
2023-11-30T09:32:54.882Z,86.07
2023-11-30T09:35:21.575Z,85.87
2023-11-30T09:40:18.834Z,85.54
2023-11-30T09:42:47.183Z,84.39
2023-11-30T09:45:14.869Z,85.08
2023-11-30T09:47:41.578Z,84.41
2023-11-30T09:50:09.008Z,84.19
2023-11-30T09:52:38.573Z,84.10
2023-11-30T09:55:06.978Z,84.09
2023-11-30T09:57:33.767Z,83.94
2023-11-30T10:00:00.481Z,84.11
2023-11-30T10:02:29.622Z,83.80
2023-11-30T10:04:58.183Z,83.88
2023-11-30T10:07:25.521Z,83.86
2023-11-30T10:09:52.146Z,83.30
2023-11-30T10:12:21.569Z,82.58
2023-11-30T10:14:48.385Z,82.52
2023-11-30T10:17:15.121Z,82.75
2023-11-30T10:19:44.962Z,82.98
2023-11-30T10:22:11.621Z,82.18
2023-11-30T10:27:11.845Z,82.48
2023-11-30T10:29:43.364Z,81.64
2023-11-30T10:32:14.515Z,82.21
2023-11-30T10:34:50.737Z,82.24
2023-11-30T10:37:20.866Z,82.18
2023-11-30T10:40:02.178Z,82.37
2023-11-30T10:42:29.344Z,81.90
2023-11-30T10:44:59.775Z,82.39
2023-11-30T10:47:29.638Z,82.67
2023-11-30T10:50:02.394Z,82.57
2023-11-30T10:52:30.921Z,82.14
2023-11-30T10:55:05.501Z,82.15
2023-11-30T10:57:33.178Z,82.53
2023-11-30T11:00:00.413Z,82.97
2023-11-30T11:02:38.626Z,82.92
2023-11-30T11:05:10.007Z,82.60
2023-11-30T11:07:36.776Z,82.30
2023-11-30T11:10:07.686Z,82.50
2023-11-30T11:12:39.276Z,82.00
2023-11-30T11:15:16.938Z,81.67
2023-11-30T11:20:28.070Z,80.77
2023-11-30T11:23:11.051Z,80.62
2023-11-30T11:25:42.276Z,80.91
2023-11-30T11:28:09.250Z,81.02
2023-11-30T11:30:48.556Z,82.38
2023-11-30T11:33:22.322Z,81.86
2023-11-30T11:35:49.192Z,81.92
2023-11-30T11:38:15.857Z,82.01
2023-11-30T11:40:43.257Z,82.44
2023-11-30T11:43:10.298Z,82.00
2023-11-30T11:45:38.522Z,81.62
2023-11-30T11:48:05.547Z,80.62
2023-11-30T11:50:32.242Z,79.96
2023-11-30T11:53:04.954Z,80.66
2023-11-30T11:55:31.905Z,81.17
2023-11-30T11:57:58.958Z,80.44
2023-11-30T12:00:27.256Z,80.96
2023-11-30T12:03:08.619Z,80.75
2023-11-30T12:05:46.252Z,80.58
2023-11-30T12:08:12.885Z,80.59
2023-11-30T12:10:50.662Z,81.02
2023-11-30T12:13:17.700Z,80.77
2023-11-30T12:15:46.814Z,80.93
2023-11-30T12:18:13.937Z,81.08
2023-11-30T12:20:40.851Z,80.95
2023-11-30T12:23:07.897Z,80.71
2023-11-30T12:25:34.546Z,80.60
2023-11-30T12:28:01.588Z,80.35
2023-11-30T12:30:28.196Z,80.12
2023-11-30T12:32:55.208Z,80.37
2023-11-30T12:35:21.928Z,80.22
2023-11-30T12:37:49.908Z,80.14
2023-11-30T12:40:16.711Z,80.47
2023-11-30T12:42:45.020Z,80.42
2023-11-30T12:45:11.908Z,80.16
2023-11-30T12:47:42.774Z,79.33
2023-11-30T12:50:12.962Z,79.56
2023-11-30T12:52:39.936Z,80.25
2023-11-30T12:55:07.856Z,80.13
2023-11-30T12:57:40.221Z,79.57
2023-11-30T13:00:16.316Z,80.32
2023-11-30T13:02:47.209Z,79.74
2023-11-30T13:05:15.286Z,80.16
2023-11-30T13:07:42.366Z,79.85
2023-11-30T13:10:11.861Z,79.55
2023-11-30T13:12:39.509Z,79.20
2023-11-30T13:15:08.036Z,79.42
2023-11-30T13:17:35.024Z,79.25
2023-11-30T13:22:30.840Z,77.49
2023-11-30T13:24:59.501Z,78.39
2023-11-30T13:27:26.945Z,78.54
2023-11-30T13:29:53.664Z,78.96
2023-11-30T13:32:20.365Z,78.98
2023-11-30T13:34:46.959Z,79.54
2023-11-30T13:37:13.703Z,79.50
2023-11-30T13:39:40.569Z,79.73
2023-11-30T13:42:07.288Z,79.81
2023-11-30T13:44:33.940Z,79.74
2023-11-30T13:47:00.847Z,79.55
2023-11-30T13:49:28.214Z,79.57
2023-11-30T13:51:56.342Z,79.34
2023-11-30T13:54:24.975Z,79.47
2023-11-30T13:56:51.861Z,78.97
2023-11-30T13:59:18.462Z,78.87
2023-11-30T14:01:45.223Z,78.93
2023-11-30T14:04:12.949Z,78.87
2023-11-30T14:06:40.502Z,78.98
2023-11-30T14:11:41.995Z,78.81
2023-11-30T14:14:08.856Z,78.68
2023-11-30T14:16:35.643Z,78.68
2023-11-30T14:19:02.848Z,78.93
2023-11-30T14:21:29.517Z,78.09
2023-11-30T14:23:56.103Z,77.58
2023-11-30T14:26:22.807Z,77.16
2023-11-30T14:28:49.880Z,77.43
2023-11-30T14:31:19.852Z,78.26
2023-11-30T14:33:46.918Z,80.92
2023-11-30T14:36:14.093Z,83.22
2023-11-30T14:38:42.182Z,83.51
2023-11-30T14:41:09.248Z,83.92
2023-11-30T14:43:36.287Z,83.88
2023-11-30T14:46:03.454Z,84.24
2023-11-30T14:48:30.217Z,84.35
2023-11-30T14:53:25.747Z,84.37
2023-11-30T14:55:52.673Z,84.73
2023-11-30T14:58:21.121Z,84.62
2023-11-30T15:00:49.047Z,84.43
2023-11-30T15:03:16.963Z,83.97
2023-11-30T15:05:43.718Z,84.88
2023-11-30T15:08:10.964Z,85.96
2023-11-30T15:10:40.165Z,86.95
2023-11-30T15:13:07.145Z,86.98
2023-11-30T15:15:33.796Z,87.18
2023-11-30T15:18:00.498Z,86.94
2023-11-30T15:22:55.731Z,86.36
2023-11-30T15:25:22.418Z,86.07
2023-11-30T15:27:50.363Z,85.93
2023-11-30T15:30:17.578Z,85.46
2023-11-30T15:32:44.527Z,86.14
2023-11-30T15:35:11.614Z,86.08
2023-11-30T15:37:38.400Z,86.15
2023-11-30T15:40:10.276Z,86.70
2023-11-30T15:42:38.315Z,86.79
2023-11-30T15:45:11.711Z,86.38
2023-11-30T15:47:40.391Z,85.94
2023-11-30T15:50:07.865Z,86.48
2023-11-30T15:52:34.650Z,85.69
2023-11-30T15:55:01.334Z,85.42
2023-11-30T15:57:28.207Z,85.55
2023-11-30T15:59:54.940Z,85.85
2023-11-30T16:02:22.006Z,85.85
2023-11-30T16:04:48.716Z,85.66
2023-11-30T16:07:15.442Z,85.68
2023-11-30T16:09:42.099Z,85.75
2023-11-30T16:12:09.253Z,85.99
2023-11-30T16:14:36.222Z,85.81
2023-11-30T16:17:03.308Z,85.73
2023-11-30T16:19:30.216Z,86.02
2023-11-30T16:21:58.574Z,86.11
2023-11-30T16:24:25.452Z,85.99
2023-11-30T16:26:55.943Z,85.92
2023-11-30T16:29:23.526Z,85.86
2023-11-30T16:31:52.458Z,85.96
2023-11-30T16:34:20.890Z,86.33
2023-11-30T16:36:48.688Z,86.46
2023-11-30T16:39:15.921Z,86.29
2023-11-30T16:41:43.790Z,86.13
2023-11-30T16:44:10.700Z,86.12
2023-11-30T16:46:37.620Z,86.71
2023-11-30T16:49:04.480Z,86.54
2023-11-30T16:51:31.172Z,86.62
2023-11-30T16:53:57.977Z,86.45
2023-11-30T16:56:26.124Z,86.51
2023-11-30T16:58:53.796Z,86.43
2023-11-30T17:01:21.409Z,86.18
2023-11-30T17:03:48.901Z,86.13
2023-11-30T17:06:15.976Z,86.89
2023-11-30T17:08:43.295Z,87.05
2023-11-30T17:11:10.003Z,87.02
2023-11-30T17:13:36.624Z,87.18
2023-11-30T17:16:06.341Z,86.85
2023-11-30T17:18:35.196Z,86.63
2023-11-30T17:21:02.149Z,87.00
2023-11-30T17:23:28.751Z,86.93
2023-11-30T17:25:55.349Z,86.75
2023-11-30T17:28:21.975Z,86.46
2023-11-30T17:30:48.679Z,86.85
2023-11-30T17:33:15.650Z,86.49
2023-11-30T17:35:42.477Z,86.44
2023-11-30T17:38:09.264Z,86.84
2023-11-30T17:40:35.933Z,86.71
2023-11-30T17:43:02.557Z,86.71
2023-11-30T17:45:29.958Z,86.10
2023-11-30T17:47:57.110Z,87.99
2023-11-30T17:50:24.566Z,88.04
2023-11-30T17:52:52.708Z,87.76
2023-11-30T17:55:20.446Z,88.04
2023-11-30T17:57:47.186Z,88.30
2023-11-30T18:00:14.397Z,87.63
2023-11-30T18:02:41.135Z,87.57
2023-11-30T18:05:08.178Z,88.12
2023-11-30T18:07:34.818Z,87.63
2023-11-30T18:10:01.983Z,87.46
2023-11-30T18:12:28.962Z,87.76
2023-11-30T18:14:55.586Z,88.42
2023-11-30T18:17:22.206Z,87.98
2023-11-30T18:19:48.928Z,88.20
2023-11-30T18:22:15.520Z,87.80
2023-11-30T18:24:42.631Z,88.77
2023-11-30T18:27:09.386Z,88.45
2023-11-30T18:29:36.371Z,88.72
2023-11-30T18:32:04.206Z,88.04
2023-11-30T18:34:30.981Z,87.73
2023-11-30T18:36:57.894Z,87.87
2023-11-30T18:39:24.998Z,88.12
2023-11-30T18:41:52.641Z,87.77
2023-11-30T18:44:19.323Z,86.96
2023-11-30T18:46:46.022Z,86.44
2023-11-30T18:49:12.775Z,87.23
2023-11-30T18:51:39.787Z,86.38
2023-11-30T18:54:06.585Z,86.30
2023-11-30T18:56:33.325Z,86.74
2023-11-30T18:59:00.666Z,85.97
2023-11-30T19:01:28.509Z,85.76
2023-11-30T19:06:25.992Z,85.60
2023-11-30T19:08:53.821Z,85.63
2023-11-30T19:11:23.099Z,85.90
2023-11-30T19:16:22.113Z,87.29
2023-11-30T19:18:50.437Z,86.75
2023-11-30T19:21:18.522Z,85.75
2023-11-30T19:23:46.740Z,86.37
2023-11-30T19:26:14.498Z,86.24
2023-11-30T19:28:41.453Z,85.48
2023-11-30T19:31:08.554Z,86.36
2023-11-30T19:33:35.633Z,86.36
2023-11-30T19:36:02.303Z,85.71
2023-11-30T19:38:29.690Z,85.90
2023-11-30T19:40:57.498Z,86.65
2023-11-30T19:43:27.741Z,85.96
2023-11-30T19:45:55.469Z,86.69
2023-11-30T19:48:22.845Z,87.11
2023-11-30T19:50:49.530Z,87.11
2023-11-30T19:53:16.877Z,87.81
2023-11-30T19:55:48.022Z,87.73
2023-11-30T19:58:18.241Z,87.82
2023-11-30T20:00:45.571Z,87.48
2023-11-30T20:03:12.547Z,87.40
2023-11-30T20:08:07.921Z,86.80
2023-11-30T20:10:34.680Z,86.20
2023-11-30T20:13:02.355Z,86.63
2023-11-30T20:15:31.115Z,85.76
2023-11-30T20:17:58.183Z,86.24
2023-11-30T20:20:25.353Z,85.00
2023-11-30T20:22:51.952Z,85.48
2023-11-30T20:27:47.959Z,85.36
2023-11-30T20:30:14.839Z,85.18
2023-11-30T20:35:11.862Z,84.88
2023-11-30T20:37:38.502Z,84.48
2023-11-30T20:40:05.694Z,85.32
2023-11-30T20:42:32.620Z,85.03
2023-11-30T20:44:59.854Z,85.19
2023-11-30T20:47:26.491Z,84.98
2023-11-30T20:49:53.443Z,83.63
2023-11-30T20:52:20.455Z,84.78
2023-11-30T20:54:47.205Z,85.29
2023-11-30T20:57:16.737Z,85.36
2023-11-30T20:59:45.626Z,85.17
2023-11-30T21:02:14.585Z,85.03
2023-11-30T21:04:41.337Z,85.20
2023-11-30T21:07:08.533Z,85.03
2023-11-30T21:09:36.808Z,84.42
2023-11-30T21:12:03.892Z,84.34
2023-11-30T21:14:30.820Z,84.88
2023-11-30T21:16:57.474Z,85.27
2023-11-30T21:19:24.515Z,86.11
2023-11-30T21:21:51.157Z,85.25
2023-11-30T21:24:18.003Z,85.35
2023-11-30T21:26:44.906Z,84.81
2023-11-30T21:29:11.905Z,85.25
2023-11-30T21:31:41.574Z,84.56
2023-11-30T21:34:08.264Z,84.54
2023-11-30T21:36:35.540Z,85.16
2023-11-30T21:39:02.163Z,85.02
2023-11-30T21:41:29.047Z,85.21
2023-11-30T21:43:55.888Z,85.21
2023-11-30T21:46:22.801Z,84.39
2023-11-30T21:48:49.572Z,84.89
2023-11-30T21:51:16.250Z,83.67
2023-11-30T21:53:42.832Z,83.89
2023-11-30T21:58:40.331Z,85.41
2023-11-30T22:01:11.531Z,85.57
2023-11-30T22:03:39.247Z,85.83
2023-11-30T22:06:06.551Z,85.72
2023-11-30T22:08:33.909Z,85.75
2023-11-30T22:11:00.906Z,85.62
2023-11-30T22:13:28.382Z,86.02
2023-11-30T22:16:00.090Z,86.08
2023-11-30T22:18:37.784Z,85.86
2023-11-30T22:21:08.098Z,85.61
2023-11-30T22:23:35.872Z,86.06
2023-11-30T22:26:04.549Z,85.99
2023-11-30T22:28:32.547Z,86.10
2023-11-30T22:31:00.383Z,85.05
2023-11-30T22:33:28.382Z,85.02
2023-11-30T22:35:57.923Z,85.83
2023-11-30T22:38:26.933Z,85.33
2023-11-30T22:40:54.970Z,85.50
2023-11-30T22:43:24.234Z,85.69
2023-11-30T22:45:51.198Z,86.16
2023-11-30T22:48:18.616Z,85.58
2023-11-30T22:50:45.558Z,85.43
2023-11-30T22:53:13.948Z,86.03
2023-11-30T22:55:41.059Z,87.02
2023-11-30T22:58:08.128Z,86.72
2023-11-30T23:00:35.966Z,86.83
2023-11-30T23:03:04.128Z,85.36
2023-11-30T23:05:31.841Z,85.92
2023-11-30T23:07:59.193Z,86.46
2023-11-30T23:10:26.172Z,86.14
2023-11-30T23:12:54.254Z,86.45
2023-11-30T23:15:21.227Z,86.25
2023-11-30T23:17:48.114Z,85.67
2023-11-30T23:20:15.150Z,84.87
2023-11-30T23:22:42.022Z,85.46
2023-11-30T23:25:09.947Z,83.65
2023-11-30T23:27:37.428Z,84.23
2023-11-30T23:30:05.195Z,84.25
2023-11-30T23:32:32.131Z,83.89
2023-11-30T23:34:59.041Z,84.28
2023-11-30T23:37:26.398Z,84.24
2023-11-30T23:39:53.277Z,83.43
2023-11-30T23:42:20.315Z,83.33
2023-11-30T23:44:47.890Z,83.95
2023-11-30T23:47:15.372Z,83.50
2023-11-30T23:49:42.071Z,83.46
2023-11-30T23:52:08.750Z,83.00
2023-11-30T23:54:35.822Z,83.30
2023-11-30T23:57:02.511Z,82.40
2023-11-30T23:59:29.397Z,82.91
